Terminal Aerodrome Forecast
Issued by NWS Green Bay, WI

Home | Current Version | Previous Version | Graphics & Text | Print | Product List | Glossary On
Versions: 1 2 3 4 5 6 7 8 9 10 11 12 13 14 15 16 17 18 19 20
000
FTUS43 KGRB 220520
TAFGRB
TAF
KGRB 220520Z 2206/2306 32008KT P6SM SCT035
      TEMPO 2206/2207 BKN035
     FM221000 29006KT P6SM SKC
     FM221700 24008KT P6SM BKN200
     FM222300 21007KT P6SM BKN100
     FM230500 22008KT 6SM -SN BKN040 OVC080=

USA.gov is the U.S. government's official web portal to all federal, state and local government web resources and services.